DAL2695 KMSY-KMSP
Flight info
| Callsign | DAL2695 |
|---|---|
| Flight time | 2h 20m |
| Altitude | 36000 |
| Route | MCB UJM ARG IRK/N0451F350 MNOSO BLUEM5 |
| Aircraft | A321/M-SDE3FGHIRWY/LB1 |
Departure
| Time | 2026-05-08 00:51 |
|---|---|
| Airport | Louis Armstrong New Orleans International Airport (KMSY) |
Arrival
| Time | 2026-05-08 03:11 |
|---|---|
| Airport | Minneapolis–Saint Paul International Airport / Wold–Chamberlain Field (KMSP) |
| Time | Latitude | Longitude | Altitude | Speed | Heading |
|---|---|---|---|---|---|
| 2026-05-07 23:59 | 29.99500 | -90.25319 | 7 ft | 0 kts | 262° |
| 2026-05-08 00:40 | 29.99501 | -90.25311 | 7 ft | 4 kts | 262° |
| 2026-05-08 00:40 | 29.99506 | -90.25280 | 8 ft | 4 kts | 261° |
| 2026-05-08 00:41 | 29.99510 | -90.25250 | 11 ft | 4 kts | 261° |
| 2026-05-08 00:41 | 29.99511 | -90.25242 | 10 ft | 0 kts | 261° |
| 2026-05-08 00:43 | 29.99510 | -90.25244 | 11 ft | 2 kts | 257° |
| 2026-05-08 00:44 | 29.99484 | -90.25255 | 12 ft | 4 kts | 168° |
| 2026-05-08 00:44 | 29.99457 | -90.25245 | 10 ft | 5 kts | 164° |
| 2026-05-08 00:44 | 29.99418 | -90.25236 | 11 ft | 5 kts | 169° |
| 2026-05-08 00:44 | 29.99375 | -90.25227 | 9 ft | 7 kts | 171° |
| 2026-05-08 00:45 | 29.99353 | -90.25224 | 10 ft | 0 kts | 173° |
| 2026-05-08 00:46 | 29.99316 | -90.25223 | 10 ft | 10 kts | 187° |
| 2026-05-08 00:46 | 29.99256 | -90.25259 | 8 ft | 10 kts | 217° |
| 2026-05-08 00:47 | 29.99198 | -90.25250 | 7 ft | 9 kts | 129° |
| 2026-05-08 00:47 | 29.99187 | -90.25179 | 7 ft | 9 kts | 93° |
| 2026-05-08 00:47 | 29.99185 | -90.25113 | 8 ft | 7 kts | 92° |
| 2026-05-08 00:47 | 29.99170 | -90.25069 | 10 ft | 6 kts | 141° |
| 2026-05-08 00:48 | 29.99126 | -90.25069 | 8 ft | 7 kts | 194° |
| 2026-05-08 00:48 | 29.99075 | -90.25086 | 6 ft | 8 kts | 195° |
| 2026-05-08 00:48 | 29.99031 | -90.25100 | 6 ft | 3 kts | 195° |
| 2026-05-08 00:48 | 29.99022 | -90.25103 | 5 ft | 1 kts | 195° |
| 2026-05-08 00:49 | 29.99010 | -90.25106 | 5 ft | 3 kts | 195° |
| 2026-05-08 00:49 | 29.98967 | -90.25120 | 5 ft | 9 kts | 196° |
| 2026-05-08 00:49 | 29.98935 | -90.25149 | 5 ft | 3 kts | 266° |
| 2026-05-08 00:49 | 29.98938 | -90.25164 | 5 ft | 1 kts | 282° |
| 2026-05-08 00:50 | 29.98962 | -90.25272 | 7 ft | 43 kts | 286° |
| 2026-05-08 00:50 | 29.99105 | -90.25860 | 9 ft | 106 kts | 285° |
| 2026-05-08 00:50 | 29.99349 | -90.26870 | 11 ft | 153 kts | 285° |
| 2026-05-08 00:50 | 29.99677 | -90.28133 | 298 ft | 165 kts | 288° |
| 2026-05-08 00:51 | 30.00008 | -90.29393 | 843 ft | 165 kts | 288° |
| 2026-05-08 00:51 | 30.00327 | -90.30679 | 1333 ft | 168 kts | 288° |
| 2026-05-08 00:51 | 30.00640 | -90.32006 | 1755 ft | 177 kts | 288° |
| 2026-05-08 00:51 | 30.01148 | -90.33373 | 1895 ft | 195 kts | 311° |
| 2026-05-08 00:52 | 30.02303 | -90.34226 | 2029 ft | 206 kts | 349° |
| 2026-05-08 00:52 | 30.03767 | -90.34192 | 2202 ft | 217 kts | 7° |
| 2026-05-08 00:52 | 30.05316 | -90.34052 | 2375 ft | 233 kts | 5° |
| 2026-05-08 00:52 | 30.07027 | -90.33943 | 2638 ft | 256 kts | 4° |
| 2026-05-08 00:53 | 30.08830 | -90.33841 | 3339 ft | 262 kts | 3° |
| 2026-05-08 00:53 | 30.10665 | -90.33740 | 4085 ft | 266 kts | 2° |
| 2026-05-08 00:53 | 30.12527 | -90.33633 | 4839 ft | 269 kts | 1° |
| 2026-05-08 00:53 | 30.14413 | -90.33520 | 5552 ft | 273 kts | 0° |
| 2026-05-08 00:54 | 30.16318 | -90.33401 | 6273 ft | 276 kts | 0° |
| 2026-05-08 00:54 | 30.18249 | -90.33276 | 6942 ft | 279 kts | 0° |
| 2026-05-08 00:54 | 30.20196 | -90.33148 | 7597 ft | 282 kts | 0° |
| 2026-05-08 00:54 | 30.22166 | -90.33018 | 8257 ft | 285 kts | 360° |
| 2026-05-08 00:55 | 30.24160 | -90.32887 | 8928 ft | 288 kts | 359° |
| 2026-05-08 00:55 | 30.26172 | -90.32756 | 9591 ft | 291 kts | 359° |
| 2026-05-08 00:55 | 30.28179 | -90.32627 | 10167 ft | 297 kts | 359° |
| 2026-05-08 00:55 | 30.30289 | -90.32495 | 10297 ft | 318 kts | 359° |
| 2026-05-08 00:56 | 30.32570 | -90.32355 | 10419 ft | 338 kts | 359° |
| 2026-05-08 00:56 | 30.34877 | -90.32209 | 10571 ft | 355 kts | 359° |
| 2026-05-08 00:56 | 30.37302 | -90.32049 | 10980 ft | 363 kts | 359° |
| 2026-05-08 00:56 | 30.39839 | -90.31877 | 11511 ft | 367 kts | 359° |
| 2026-05-08 00:57 | 30.42405 | -90.31699 | 12093 ft | 371 kts | 359° |
| 2026-05-08 00:57 | 30.44994 | -90.31521 | 12686 ft | 374 kts | 359° |
| 2026-05-08 00:57 | 30.47609 | -90.31346 | 13292 ft | 378 kts | 359° |
| 2026-05-08 00:57 | 30.50251 | -90.31172 | 13888 ft | 382 kts | 359° |
| 2026-05-08 00:58 | 30.52919 | -90.30997 | 14405 ft | 386 kts | 358° |
| 2026-05-08 00:58 | 30.55619 | -90.30818 | 14911 ft | 390 kts | 358° |
| 2026-05-08 00:58 | 30.58343 | -90.30635 | 15407 ft | 394 kts | 358° |
| 2026-05-08 00:58 | 30.61096 | -90.30452 | 15900 ft | 398 kts | 357° |
| 2026-05-08 00:59 | 30.62936 | -90.30330 | 16218 ft | 401 kts | 357° |
| 2026-05-08 00:59 | 30.65734 | -90.30148 | 16697 ft | 405 kts | 356° |
| 2026-05-08 00:59 | 30.69491 | -90.29900 | 17324 ft | 410 kts | 356° |
| 2026-05-08 00:59 | 30.71385 | -90.29774 | 17632 ft | 412 kts | 356° |
| 2026-05-08 01:00 | 30.74265 | -90.29585 | 18092 ft | 416 kts | 355° |
| 2026-05-08 01:00 | 30.77163 | -90.29395 | 18500 ft | 420 kts | 355° |
| 2026-05-08 01:00 | 30.80095 | -90.29199 | 18889 ft | 423 kts | 355° |
| 2026-05-08 01:00 | 30.83042 | -90.28999 | 19303 ft | 425 kts | 355° |
| 2026-05-08 01:01 | 30.86000 | -90.28799 | 19717 ft | 427 kts | 355° |
| 2026-05-08 01:01 | 30.88982 | -90.28600 | 20134 ft | 429 kts | 355° |
| 2026-05-08 01:01 | 30.91968 | -90.28404 | 20546 ft | 431 kts | 355° |
| 2026-05-08 01:01 | 30.94970 | -90.28206 | 20957 ft | 433 kts | 355° |
| 2026-05-08 01:02 | 30.97991 | -90.28003 | 21384 ft | 436 kts | 355° |
| 2026-05-08 01:02 | 31.01028 | -90.27800 | 21772 ft | 438 kts | 355° |
| 2026-05-08 01:02 | 31.04084 | -90.27598 | 22163 ft | 441 kts | 355° |
| 2026-05-08 01:02 | 31.07159 | -90.27397 | 22557 ft | 443 kts | 355° |
| 2026-05-08 01:03 | 31.10249 | -90.27195 | 22944 ft | 446 kts | 355° |
| 2026-05-08 01:03 | 31.13355 | -90.26987 | 23322 ft | 448 kts | 355° |
| 2026-05-08 01:03 | 31.16478 | -90.26777 | 23684 ft | 450 kts | 355° |
| 2026-05-08 01:03 | 31.19614 | -90.26565 | 23995 ft | 453 kts | 355° |
| 2026-05-08 01:04 | 31.22764 | -90.26352 | 24320 ft | 454 kts | 355° |
| 2026-05-08 01:04 | 31.25926 | -90.26138 | 24651 ft | 457 kts | 354° |
| 2026-05-08 01:04 | 31.29112 | -90.25928 | 24915 ft | 459 kts | 353° |
| 2026-05-08 01:04 | 31.32270 | -90.26039 | 25209 ft | 451 kts | 345° |
| 2026-05-08 01:05 | 31.35395 | -90.26420 | 25522 ft | 452 kts | 345° |
| 2026-05-08 01:05 | 31.38494 | -90.26806 | 25843 ft | 454 kts | 345° |
| 2026-05-08 01:05 | 31.41642 | -90.27200 | 26161 ft | 456 kts | 345° |
| 2026-05-08 01:05 | 31.44801 | -90.27594 | 26470 ft | 458 kts | 345° |
| 2026-05-08 01:06 | 31.47977 | -90.27990 | 26781 ft | 459 kts | 345° |
| 2026-05-08 01:06 | 31.51160 | -90.28386 | 27092 ft | 461 kts | 345° |
| 2026-05-08 01:06 | 31.54357 | -90.28782 | 27436 ft | 463 kts | 344° |
| 2026-05-08 01:06 | 31.57562 | -90.29175 | 27734 ft | 464 kts | 344° |
| 2026-05-08 01:07 | 31.60781 | -90.29568 | 28012 ft | 466 kts | 344° |
| 2026-05-08 01:07 | 31.64013 | -90.29963 | 28282 ft | 468 kts | 344° |
| 2026-05-08 01:07 | 31.67259 | -90.30363 | 28554 ft | 470 kts | 344° |
| 2026-05-08 01:07 | 31.70519 | -90.30767 | 28825 ft | 472 kts | 344° |
| 2026-05-08 01:08 | 31.73797 | -90.31174 | 29092 ft | 474 kts | 344° |
| 2026-05-08 01:08 | 31.77078 | -90.31581 | 29371 ft | 475 kts | 344° |
| 2026-05-08 01:08 | 31.80359 | -90.31986 | 29769 ft | 474 kts | 343° |
| 2026-05-08 01:08 | 31.83625 | -90.32386 | 30214 ft | 470 kts | 343° |
| 2026-05-08 01:09 | 31.86872 | -90.32782 | 30579 ft | 468 kts | 343° |
| 2026-05-08 01:09 | 31.90107 | -90.33181 | 30902 ft | 466 kts | 343° |
| 2026-05-08 01:09 | 31.93332 | -90.33584 | 31205 ft | 466 kts | 343° |
| 2026-05-08 01:09 | 31.96553 | -90.33987 | 31506 ft | 465 kts | 342° |
| 2026-05-08 01:10 | 31.99727 | -90.34385 | 31811 ft | 465 kts | 342° |
| 2026-05-08 01:10 | 32.02940 | -90.34787 | 32122 ft | 464 kts | 342° |
| 2026-05-08 01:10 | 32.06149 | -90.35188 | 32428 ft | 464 kts | 342° |
| 2026-05-08 01:10 | 32.09358 | -90.35592 | 32782 ft | 463 kts | 342° |
| 2026-05-08 01:11 | 32.12565 | -90.35994 | 33088 ft | 463 kts | 342° |
| 2026-05-08 01:11 | 32.15769 | -90.36391 | 33391 ft | 462 kts | 342° |
| 2026-05-08 01:11 | 32.18970 | -90.36786 | 33689 ft | 462 kts | 341° |
| 2026-05-08 01:11 | 32.22165 | -90.37184 | 33980 ft | 462 kts | 341° |
| 2026-05-08 01:12 | 32.25357 | -90.37585 | 34256 ft | 461 kts | 341° |
| 2026-05-08 01:12 | 32.28546 | -90.37988 | 34527 ft | 460 kts | 341° |
| 2026-05-08 01:12 | 32.31721 | -90.38387 | 34811 ft | 459 kts | 341° |
| 2026-05-08 01:12 | 32.34893 | -90.38780 | 35119 ft | 458 kts | 341° |
| 2026-05-08 01:13 | 32.38058 | -90.39171 | 35418 ft | 456 kts | 341° |
| 2026-05-08 01:13 | 32.41206 | -90.39561 | 35710 ft | 454 kts | 341° |
| 2026-05-08 01:13 | 32.44343 | -90.39953 | 35967 ft | 453 kts | 341° |
| 2026-05-08 01:14 | 32.50584 | -90.40742 | 36051 ft | 449 kts | 340° |
| 2026-05-08 01:14 | 32.56790 | -90.41530 | 36051 ft | 448 kts | 340° |
| 2026-05-08 01:15 | 32.62947 | -90.42318 | 36095 ft | 448 kts | 340° |
| 2026-05-08 01:15 | 32.69120 | -90.43091 | 36055 ft | 445 kts | 340° |
| 2026-05-08 01:16 | 32.75275 | -90.43872 | 36060 ft | 445 kts | 340° |
| 2026-05-08 01:16 | 32.81426 | -90.44654 | 36061 ft | 445 kts | 340° |
| 2026-05-08 01:17 | 32.87588 | -90.45434 | 36065 ft | 445 kts | 340° |
| 2026-05-08 01:17 | 32.93729 | -90.46215 | 36083 ft | 443 kts | 340° |
| 2026-05-08 01:18 | 32.99854 | -90.46992 | 36082 ft | 442 kts | 340° |
| 2026-05-08 01:18 | 33.05976 | -90.47771 | 36078 ft | 442 kts | 340° |
| 2026-05-08 01:19 | 33.12058 | -90.48552 | 36077 ft | 442 kts | 340° |
| 2026-05-08 01:19 | 33.18217 | -90.49341 | 36109 ft | 442 kts | 340° |
| 2026-05-08 01:20 | 33.24302 | -90.50119 | 36099 ft | 442 kts | 340° |
| 2026-05-08 01:20 | 33.30427 | -90.50899 | 36092 ft | 442 kts | 340° |
| 2026-05-08 01:21 | 33.36541 | -90.51682 | 36085 ft | 442 kts | 340° |
| 2026-05-08 01:21 | 33.42654 | -90.52467 | 36085 ft | 442 kts | 340° |
| 2026-05-08 01:22 | 33.48767 | -90.53251 | 36086 ft | 442 kts | 340° |
| 2026-05-08 01:22 | 33.54884 | -90.54029 | 36084 ft | 442 kts | 340° |
| 2026-05-08 01:23 | 33.60997 | -90.54812 | 36083 ft | 442 kts | 340° |
| 2026-05-08 01:23 | 33.67068 | -90.55606 | 36082 ft | 441 kts | 340° |
| 2026-05-08 01:24 | 33.73180 | -90.56399 | 36079 ft | 441 kts | 340° |
| 2026-05-08 01:24 | 33.79287 | -90.57186 | 36057 ft | 441 kts | 340° |
| 2026-05-08 01:25 | 33.85403 | -90.57986 | 36055 ft | 442 kts | 340° |
| 2026-05-08 01:25 | 33.91532 | -90.58776 | 36057 ft | 443 kts | 340° |
| 2026-05-08 01:26 | 33.97662 | -90.59573 | 36094 ft | 443 kts | 340° |
| 2026-05-08 01:26 | 34.03799 | -90.60378 | 36094 ft | 444 kts | 340° |
| 2026-05-08 01:27 | 34.09951 | -90.61182 | 36096 ft | 444 kts | 340° |
| 2026-05-08 01:27 | 34.16054 | -90.61981 | 36096 ft | 444 kts | 340° |
| 2026-05-08 01:28 | 34.22200 | -90.62783 | 36140 ft | 444 kts | 339° |
| 2026-05-08 01:28 | 34.28348 | -90.63587 | 36100 ft | 444 kts | 339° |
| 2026-05-08 01:29 | 34.34491 | -90.64393 | 36094 ft | 444 kts | 339° |
| 2026-05-08 01:29 | 34.40643 | -90.65205 | 36090 ft | 445 kts | 339° |
| 2026-05-08 01:30 | 34.46795 | -90.66011 | 36078 ft | 445 kts | 339° |
| 2026-05-08 01:30 | 34.52956 | -90.66822 | 36108 ft | 444 kts | 338° |
| 2026-05-08 01:31 | 34.59098 | -90.67656 | 36101 ft | 442 kts | 337° |
| 2026-05-08 01:31 | 34.65127 | -90.68687 | 36095 ft | 438 kts | 335° |
| 2026-05-08 01:32 | 34.71144 | -90.69842 | 36092 ft | 438 kts | 335° |
| 2026-05-08 01:32 | 34.77161 | -90.70968 | 36086 ft | 436 kts | 335° |
| 2026-05-08 01:33 | 34.83168 | -90.72047 | 36078 ft | 435 kts | 335° |
| 2026-05-08 01:33 | 34.89161 | -90.73119 | 36076 ft | 435 kts | 335° |
| 2026-05-08 01:34 | 34.95157 | -90.74192 | 36075 ft | 436 kts | 335° |
| 2026-05-08 01:34 | 35.01154 | -90.75272 | 36092 ft | 435 kts | 334° |
| 2026-05-08 01:35 | 35.07122 | -90.76353 | 36080 ft | 433 kts | 334° |
| 2026-05-08 01:35 | 35.13080 | -90.77437 | 36064 ft | 433 kts | 334° |
| 2026-05-08 01:36 | 35.19052 | -90.78522 | 36065 ft | 435 kts | 334° |
| 2026-05-08 01:36 | 35.24998 | -90.79592 | 36127 ft | 435 kts | 334° |
| 2026-05-08 01:37 | 35.30988 | -90.80667 | 36111 ft | 435 kts | 334° |
| 2026-05-08 01:37 | 35.37003 | -90.81759 | 36109 ft | 434 kts | 334° |
| 2026-05-08 01:38 | 35.42940 | -90.82839 | 36101 ft | 434 kts | 334° |
| 2026-05-08 01:38 | 35.48903 | -90.83932 | 36098 ft | 433 kts | 334° |
| 2026-05-08 01:39 | 35.54858 | -90.85013 | 36087 ft | 432 kts | 334° |
| 2026-05-08 01:39 | 35.60794 | -90.86098 | 36080 ft | 431 kts | 334° |
| 2026-05-08 01:40 | 35.66727 | -90.87188 | 36077 ft | 431 kts | 334° |
| 2026-05-08 01:40 | 35.72663 | -90.88281 | 36076 ft | 431 kts | 334° |
| 2026-05-08 01:41 | 35.78601 | -90.89371 | 36079 ft | 430 kts | 334° |
| 2026-05-08 01:41 | 35.84505 | -90.90448 | 36069 ft | 429 kts | 334° |
| 2026-05-08 01:42 | 35.90410 | -90.91540 | 36062 ft | 429 kts | 334° |
| 2026-05-08 01:42 | 35.96313 | -90.92639 | 36062 ft | 429 kts | 334° |
| 2026-05-08 01:43 | 36.02221 | -90.93735 | 36064 ft | 429 kts | 334° |
| 2026-05-08 01:43 | 36.08131 | -90.94832 | 36064 ft | 430 kts | 334° |
| 2026-05-08 01:43 | 36.11060 | -90.95440 | 36064 ft | 419 kts | 329° |
| 2026-05-08 01:44 | 36.13811 | -90.96422 | 36062 ft | 409 kts | 325° |
| 2026-05-08 01:44 | 36.19245 | -90.98534 | 36065 ft | 409 kts | 325° |
| 2026-05-08 01:45 | 36.24677 | -91.00639 | 36101 ft | 409 kts | 325° |
| 2026-05-08 01:45 | 36.30081 | -91.02722 | 36088 ft | 409 kts | 325° |
| 2026-05-08 01:46 | 36.35519 | -91.04823 | 36077 ft | 409 kts | 325° |
| 2026-05-08 01:46 | 36.40955 | -91.06927 | 36072 ft | 409 kts | 325° |
| 2026-05-08 01:47 | 36.46396 | -91.09039 | 36068 ft | 409 kts | 325° |
| 2026-05-08 01:47 | 36.50946 | -91.10806 | 36106 ft | 409 kts | 325° |
| 2026-05-08 01:48 | 36.59024 | -91.13932 | 36049 ft | 406 kts | 325° |
| 2026-05-08 01:48 | 36.64419 | -91.16045 | 36023 ft | 407 kts | 325° |
| 2026-05-08 01:49 | 36.69828 | -91.18163 | 36027 ft | 408 kts | 325° |
| 2026-05-08 01:49 | 36.75252 | -91.20284 | 36086 ft | 409 kts | 326° |
| 2026-05-08 01:50 | 36.80685 | -91.22405 | 36075 ft | 409 kts | 326° |
| 2026-05-08 01:50 | 36.86115 | -91.24532 | 36068 ft | 409 kts | 326° |
| 2026-05-08 01:51 | 36.91545 | -91.26669 | 36060 ft | 409 kts | 325° |
| 2026-05-08 01:51 | 36.96974 | -91.28810 | 36058 ft | 409 kts | 326° |
| 2026-05-08 01:52 | 37.02408 | -91.30942 | 36065 ft | 408 kts | 326° |
| 2026-05-08 01:52 | 37.07823 | -91.33073 | 36054 ft | 408 kts | 326° |
| 2026-05-08 01:53 | 37.13237 | -91.35216 | 36050 ft | 408 kts | 326° |
| 2026-05-08 01:53 | 37.18619 | -91.37349 | 36053 ft | 408 kts | 326° |
| 2026-05-08 01:54 | 37.24037 | -91.39495 | 36087 ft | 409 kts | 326° |
| 2026-05-08 01:54 | 37.29450 | -91.41627 | 36073 ft | 407 kts | 326° |
| 2026-05-08 01:55 | 37.34852 | -91.43773 | 36064 ft | 407 kts | 326° |
| 2026-05-08 01:55 | 37.40251 | -91.45928 | 36060 ft | 407 kts | 326° |
| 2026-05-08 01:56 | 37.45653 | -91.48084 | 36051 ft | 407 kts | 326° |
| 2026-05-08 01:56 | 37.51054 | -91.50240 | 36053 ft | 406 kts | 327° |
| 2026-05-08 01:57 | 37.56434 | -91.52394 | 36040 ft | 406 kts | 327° |
| 2026-05-08 01:57 | 37.61825 | -91.54551 | 36016 ft | 407 kts | 327° |
| 2026-05-08 01:58 | 37.67229 | -91.56713 | 36017 ft | 408 kts | 327° |
| 2026-05-08 01:58 | 37.72649 | -91.58884 | 36065 ft | 409 kts | 327° |
| 2026-05-08 01:59 | 37.78065 | -91.61068 | 36050 ft | 409 kts | 327° |
| 2026-05-08 01:59 | 37.83488 | -91.63260 | 36041 ft | 409 kts | 327° |
| 2026-05-08 02:00 | 37.88917 | -91.65449 | 36039 ft | 410 kts | 327° |
| 2026-05-08 02:00 | 37.94347 | -91.67641 | 36068 ft | 410 kts | 327° |
| 2026-05-08 02:01 | 37.99752 | -91.69824 | 36050 ft | 410 kts | 328° |
| 2026-05-08 02:01 | 38.05187 | -91.72026 | 36057 ft | 410 kts | 328° |
| 2026-05-08 02:02 | 38.10617 | -91.74225 | 36052 ft | 409 kts | 328° |
| 2026-05-08 02:02 | 38.16040 | -91.76431 | 36049 ft | 409 kts | 328° |
| 2026-05-08 02:03 | 38.21461 | -91.78638 | 36038 ft | 408 kts | 328° |
| 2026-05-08 02:03 | 38.26876 | -91.80837 | 36029 ft | 408 kts | 328° |
| 2026-05-08 02:04 | 38.32284 | -91.83050 | 36016 ft | 408 kts | 328° |
| 2026-05-08 02:04 | 38.37667 | -91.85252 | 36005 ft | 409 kts | 328° |
| 2026-05-08 02:05 | 38.43084 | -91.87466 | 35997 ft | 409 kts | 328° |
| 2026-05-08 02:05 | 38.48506 | -91.89693 | 35993 ft | 409 kts | 328° |
| 2026-05-08 02:06 | 38.53923 | -91.91925 | 35981 ft | 409 kts | 328° |
| 2026-05-08 02:06 | 38.59345 | -91.94159 | 35986 ft | 410 kts | 328° |
| 2026-05-08 02:07 | 38.64780 | -91.96402 | 36044 ft | 410 kts | 329° |
| 2026-05-08 02:07 | 38.70221 | -91.98641 | 36023 ft | 411 kts | 329° |
| 2026-05-08 02:08 | 38.75657 | -92.00884 | 36020 ft | 410 kts | 329° |
| 2026-05-08 02:08 | 38.81092 | -92.03142 | 36015 ft | 410 kts | 328° |
| 2026-05-08 02:09 | 38.86519 | -92.05402 | 36011 ft | 410 kts | 329° |
| 2026-05-08 02:09 | 38.91918 | -92.07645 | 36032 ft | 410 kts | 329° |
| 2026-05-08 02:10 | 38.97349 | -92.09899 | 36020 ft | 410 kts | 329° |
| 2026-05-08 02:10 | 39.02777 | -92.12164 | 36015 ft | 410 kts | 329° |
| 2026-05-08 02:11 | 39.08204 | -92.14436 | 36007 ft | 410 kts | 328° |
| 2026-05-08 02:11 | 39.13635 | -92.16712 | 35998 ft | 411 kts | 329° |
| 2026-05-08 02:12 | 39.19072 | -92.18987 | 35983 ft | 411 kts | 329° |
| 2026-05-08 02:12 | 39.24512 | -92.21276 | 35977 ft | 412 kts | 329° |
| 2026-05-08 02:13 | 39.29965 | -92.23572 | 35971 ft | 412 kts | 329° |
| 2026-05-08 02:13 | 39.35420 | -92.25861 | 36004 ft | 413 kts | 330° |
| 2026-05-08 02:14 | 39.40883 | -92.28158 | 35989 ft | 413 kts | 330° |
| 2026-05-08 02:14 | 39.46346 | -92.30465 | 35983 ft | 413 kts | 330° |
| 2026-05-08 02:15 | 39.51807 | -92.32778 | 35978 ft | 413 kts | 330° |
| 2026-05-08 02:15 | 39.57274 | -92.35091 | 36006 ft | 413 kts | 330° |
| 2026-05-08 02:16 | 39.62703 | -92.37401 | 35997 ft | 413 kts | 330° |
| 2026-05-08 02:16 | 39.68171 | -92.39729 | 35984 ft | 413 kts | 330° |
| 2026-05-08 02:17 | 39.73635 | -92.42051 | 35976 ft | 413 kts | 330° |
| 2026-05-08 02:17 | 39.79094 | -92.44382 | 36003 ft | 413 kts | 331° |
| 2026-05-08 02:18 | 39.84555 | -92.46718 | 35959 ft | 413 kts | 331° |
| 2026-05-08 02:18 | 39.90016 | -92.49056 | 35955 ft | 413 kts | 331° |
| 2026-05-08 02:19 | 39.95485 | -92.51399 | 35948 ft | 413 kts | 331° |
| 2026-05-08 02:19 | 40.00948 | -92.53754 | 35972 ft | 414 kts | 332° |
| 2026-05-08 02:20 | 40.06381 | -92.56094 | 35959 ft | 414 kts | 332° |
| 2026-05-08 02:20 | 40.11864 | -92.58412 | 35952 ft | 418 kts | 336° |
| 2026-05-08 02:21 | 40.14778 | -92.59061 | 35947 ft | 431 kts | 346° |
| 2026-05-08 02:21 | 40.17816 | -92.59108 | 35946 ft | 439 kts | 350° |
| 2026-05-08 02:21 | 40.23924 | -92.59010 | 35983 ft | 439 kts | 352° |
| 2026-05-08 02:22 | 40.30038 | -92.58928 | 35963 ft | 439 kts | 352° |
| 2026-05-08 02:22 | 40.36154 | -92.58847 | 35945 ft | 440 kts | 352° |
| 2026-05-08 02:23 | 40.42273 | -92.58760 | 35930 ft | 440 kts | 352° |
| 2026-05-08 02:23 | 40.48395 | -92.58666 | 35937 ft | 440 kts | 352° |
| 2026-05-08 02:24 | 40.54517 | -92.58575 | 35920 ft | 440 kts | 352° |
| 2026-05-08 02:24 | 40.60652 | -92.58487 | 35912 ft | 440 kts | 352° |
| 2026-05-08 02:25 | 40.66779 | -92.58394 | 35915 ft | 440 kts | 352° |
| 2026-05-08 02:25 | 40.72906 | -92.58299 | 35909 ft | 440 kts | 352° |
| 2026-05-08 02:26 | 40.79041 | -92.58201 | 35904 ft | 440 kts | 352° |
| 2026-05-08 02:26 | 40.85170 | -92.58115 | 35903 ft | 440 kts | 352° |
| 2026-05-08 02:27 | 40.91257 | -92.58030 | 35932 ft | 440 kts | 353° |
| 2026-05-08 02:27 | 40.97390 | -92.57929 | 35918 ft | 440 kts | 353° |
| 2026-05-08 02:28 | 41.03514 | -92.57834 | 35914 ft | 440 kts | 353° |
| 2026-05-08 02:28 | 41.09635 | -92.57744 | 35911 ft | 440 kts | 353° |
| 2026-05-08 02:29 | 41.15755 | -92.57650 | 35955 ft | 440 kts | 353° |
| 2026-05-08 02:29 | 41.21874 | -92.57558 | 35948 ft | 439 kts | 353° |
| 2026-05-08 02:30 | 41.27987 | -92.57472 | 35939 ft | 439 kts | 353° |
| 2026-05-08 02:30 | 41.34102 | -92.57381 | 35958 ft | 439 kts | 353° |
| 2026-05-08 02:31 | 41.40216 | -92.57299 | 35931 ft | 440 kts | 353° |
| 2026-05-08 02:31 | 41.46337 | -92.57215 | 35921 ft | 440 kts | 354° |
| 2026-05-08 02:32 | 41.52462 | -92.57102 | 35934 ft | 440 kts | 354° |
| 2026-05-08 02:32 | 41.58539 | -92.56996 | 35961 ft | 439 kts | 353° |
| 2026-05-08 02:33 | 41.64638 | -92.56902 | 35954 ft | 438 kts | 353° |
| 2026-05-08 02:33 | 41.70731 | -92.56812 | 35949 ft | 438 kts | 353° |
| 2026-05-08 02:34 | 41.76819 | -92.56715 | 35969 ft | 437 kts | 353° |
| 2026-05-08 02:34 | 41.82906 | -92.56618 | 35957 ft | 437 kts | 353° |
| 2026-05-08 02:35 | 41.87956 | -92.56538 | 35948 ft | 436 kts | 353° |
| 2026-05-08 02:35 | 41.94065 | -92.56447 | 35940 ft | 436 kts | 353° |
| 2026-05-08 02:36 | 42.00087 | -92.56357 | 35954 ft | 435 kts | 353° |
| 2026-05-08 02:36 | 42.06143 | -92.56265 | 35939 ft | 435 kts | 353° |
| 2026-05-08 02:37 | 42.12187 | -92.56172 | 35937 ft | 434 kts | 353° |
| 2026-05-08 02:37 | 42.18223 | -92.56077 | 35961 ft | 434 kts | 353° |
| 2026-05-08 02:38 | 42.24221 | -92.55984 | 35952 ft | 433 kts | 353° |
| 2026-05-08 02:38 | 42.30240 | -92.55887 | 35945 ft | 432 kts | 353° |
| 2026-05-08 02:39 | 42.36226 | -92.55940 | 35937 ft | 425 kts | 346° |
| 2026-05-08 02:39 | 42.41775 | -92.57997 | 35942 ft | 406 kts | 328° |
| 2026-05-08 02:40 | 42.46845 | -92.61299 | 35941 ft | 405 kts | 328° |
| 2026-05-08 02:40 | 42.51931 | -92.64579 | 35763 ft | 405 kts | 329° |
| 2026-05-08 02:41 | 42.54474 | -92.66213 | 35514 ft | 404 kts | 329° |
| 2026-05-08 02:41 | 42.57010 | -92.67844 | 35242 ft | 404 kts | 329° |
| 2026-05-08 02:41 | 42.59554 | -92.69484 | 35028 ft | 404 kts | 329° |
| 2026-05-08 02:41 | 42.62088 | -92.71121 | 34789 ft | 403 kts | 329° |
| 2026-05-08 02:42 | 42.64619 | -92.72759 | 34550 ft | 402 kts | 329° |
| 2026-05-08 02:42 | 42.67144 | -92.74395 | 34314 ft | 402 kts | 329° |
| 2026-05-08 02:42 | 42.69666 | -92.76030 | 34082 ft | 402 kts | 329° |
| 2026-05-08 02:42 | 42.72187 | -92.77662 | 33680 ft | 402 kts | 329° |
| 2026-05-08 02:43 | 42.74727 | -92.79313 | 32798 ft | 405 kts | 329° |
| 2026-05-08 02:43 | 42.77279 | -92.80974 | 31974 ft | 408 kts | 329° |
| 2026-05-08 02:43 | 42.79832 | -92.82639 | 31438 ft | 404 kts | 329° |
| 2026-05-08 02:43 | 42.82362 | -92.84298 | 31180 ft | 404 kts | 329° |
| 2026-05-08 02:44 | 42.84891 | -92.85967 | 30940 ft | 405 kts | 329° |
| 2026-05-08 02:44 | 42.87426 | -92.87644 | 30735 ft | 405 kts | 329° |
| 2026-05-08 02:44 | 42.89966 | -92.89323 | 30542 ft | 406 kts | 329° |
| 2026-05-08 02:44 | 42.92506 | -92.91006 | 30261 ft | 406 kts | 329° |
| 2026-05-08 02:45 | 42.95052 | -92.92693 | 29976 ft | 407 kts | 329° |
| 2026-05-08 02:45 | 42.97599 | -92.94382 | 29668 ft | 407 kts | 330° |
| 2026-05-08 02:45 | 43.00144 | -92.96069 | 29379 ft | 406 kts | 330° |
| 2026-05-08 02:45 | 43.02676 | -92.97744 | 29108 ft | 404 kts | 330° |
| 2026-05-08 02:46 | 43.05198 | -92.99415 | 28829 ft | 402 kts | 329° |
| 2026-05-08 02:46 | 43.07709 | -93.01083 | 28553 ft | 400 kts | 329° |
| 2026-05-08 02:46 | 43.10204 | -93.02742 | 28276 ft | 398 kts | 329° |
| 2026-05-08 02:46 | 43.12690 | -93.04396 | 28007 ft | 396 kts | 329° |
| 2026-05-08 02:47 | 43.15132 | -93.06024 | 27715 ft | 395 kts | 329° |
| 2026-05-08 02:47 | 43.17602 | -93.07671 | 27454 ft | 395 kts | 330° |
| 2026-05-08 02:47 | 43.20072 | -93.09316 | 27196 ft | 394 kts | 330° |
| 2026-05-08 02:47 | 43.22528 | -93.10954 | 26917 ft | 391 kts | 330° |
| 2026-05-08 02:48 | 43.24970 | -93.12584 | 26647 ft | 389 kts | 330° |
| 2026-05-08 02:48 | 43.27407 | -93.14214 | 26377 ft | 388 kts | 330° |
| 2026-05-08 02:48 | 43.29824 | -93.15835 | 26111 ft | 386 kts | 329° |
| 2026-05-08 02:48 | 43.32231 | -93.17454 | 25848 ft | 384 kts | 329° |
| 2026-05-08 02:49 | 43.34627 | -93.19067 | 25588 ft | 382 kts | 329° |
| 2026-05-08 02:49 | 43.37014 | -93.20671 | 25316 ft | 381 kts | 330° |
| 2026-05-08 02:49 | 43.39393 | -93.22270 | 25074 ft | 379 kts | 330° |
| 2026-05-08 02:49 | 43.41752 | -93.23854 | 24794 ft | 376 kts | 330° |
| 2026-05-08 02:50 | 43.44098 | -93.25431 | 24537 ft | 374 kts | 330° |
| 2026-05-08 02:50 | 43.46434 | -93.26999 | 24278 ft | 373 kts | 330° |
| 2026-05-08 02:50 | 43.48865 | -93.28273 | 24021 ft | 377 kts | 340° |
| 2026-05-08 02:50 | 43.51462 | -93.28889 | 23652 ft | 383 kts | 350° |
| 2026-05-08 02:51 | 43.54137 | -93.28820 | 23096 ft | 385 kts | 358° |
| 2026-05-08 02:51 | 43.56794 | -93.28550 | 22616 ft | 382 kts | 357° |
| 2026-05-08 02:51 | 43.59439 | -93.28285 | 22160 ft | 379 kts | 357° |
| 2026-05-08 02:51 | 43.62055 | -93.28027 | 21667 ft | 375 kts | 357° |
| 2026-05-08 02:52 | 43.64645 | -93.27778 | 21201 ft | 372 kts | 357° |
| 2026-05-08 02:52 | 43.67218 | -93.27535 | 20727 ft | 369 kts | 357° |
| 2026-05-08 02:52 | 43.69773 | -93.27296 | 20274 ft | 367 kts | 357° |
| 2026-05-08 02:52 | 43.72312 | -93.27057 | 19816 ft | 364 kts | 357° |
| 2026-05-08 02:53 | 43.74833 | -93.26815 | 19360 ft | 362 kts | 357° |
| 2026-05-08 02:53 | 43.77340 | -93.26572 | 18907 ft | 360 kts | 357° |
| 2026-05-08 02:53 | 43.79825 | -93.26328 | 18467 ft | 357 kts | 357° |
| 2026-05-08 02:53 | 43.82290 | -93.26085 | 18038 ft | 354 kts | 357° |
| 2026-05-08 02:54 | 43.84741 | -93.25844 | 17617 ft | 352 kts | 358° |
| 2026-05-08 02:54 | 43.87176 | -93.25607 | 17193 ft | 349 kts | 358° |
| 2026-05-08 02:54 | 43.89592 | -93.25374 | 16757 ft | 347 kts | 358° |
| 2026-05-08 02:54 | 43.91997 | -93.25144 | 16323 ft | 345 kts | 358° |
| 2026-05-08 02:55 | 43.94340 | -93.24915 | 16039 ft | 337 kts | 358° |
| 2026-05-08 02:55 | 43.98897 | -93.24447 | 15646 ft | 326 kts | 358° |
| 2026-05-08 02:55 | 44.01141 | -93.24210 | 15232 ft | 322 kts | 358° |
| 2026-05-08 02:56 | 44.03364 | -93.23973 | 14851 ft | 319 kts | 358° |
| 2026-05-08 02:56 | 44.05571 | -93.23738 | 14476 ft | 317 kts | 358° |
| 2026-05-08 02:56 | 44.07766 | -93.23502 | 14105 ft | 316 kts | 359° |
| 2026-05-08 02:56 | 44.09948 | -93.23265 | 13728 ft | 314 kts | 359° |
| 2026-05-08 02:57 | 44.12121 | -93.23027 | 13319 ft | 312 kts | 359° |
| 2026-05-08 02:57 | 44.14286 | -93.22790 | 12949 ft | 311 kts | 359° |
| 2026-05-08 02:57 | 44.16445 | -93.22554 | 12579 ft | 310 kts | 359° |
| 2026-05-08 02:57 | 44.18591 | -93.22323 | 12227 ft | 309 kts | 359° |
| 2026-05-08 02:58 | 44.20730 | -93.22113 | 11853 ft | 307 kts | 359° |
| 2026-05-08 02:58 | 44.22862 | -93.21923 | 11491 ft | 306 kts | 358° |
| 2026-05-08 02:58 | 44.24983 | -93.21739 | 11126 ft | 305 kts | 358° |
| 2026-05-08 02:58 | 44.27099 | -93.21555 | 10762 ft | 304 kts | 359° |
| 2026-05-08 02:59 | 44.29204 | -93.21369 | 10426 ft | 301 kts | 359° |
| 2026-05-08 02:59 | 44.31235 | -93.21197 | 10257 ft | 281 kts | 358° |
| 2026-05-08 02:59 | 44.33146 | -93.21042 | 9814 ft | 270 kts | 358° |
| 2026-05-08 02:59 | 44.35012 | -93.20899 | 9665 ft | 268 kts | 358° |
| 2026-05-08 03:00 | 44.36875 | -93.20759 | 9524 ft | 269 kts | 359° |
| 2026-05-08 03:00 | 44.38733 | -93.20321 | 9399 ft | 273 kts | 7° |
| 2026-05-08 03:00 | 44.40585 | -93.19729 | 9264 ft | 272 kts | 7° |
| 2026-05-08 03:00 | 44.42428 | -93.19084 | 9089 ft | 275 kts | 14° |
| 2026-05-08 03:01 | 44.44135 | -93.17917 | 8870 ft | 281 kts | 29° |
| 2026-05-08 03:01 | 44.45729 | -93.16321 | 8687 ft | 282 kts | 30° |
| 2026-05-08 03:01 | 44.47344 | -93.14706 | 8488 ft | 281 kts | 30° |
| 2026-05-08 03:01 | 44.48919 | -93.13138 | 8287 ft | 281 kts | 30° |
| 2026-05-08 03:02 | 44.50509 | -93.11557 | 8093 ft | 280 kts | 30° |
| 2026-05-08 03:02 | 44.52099 | -93.09972 | 7891 ft | 280 kts | 31° |
| 2026-05-08 03:02 | 44.53682 | -93.08390 | 7680 ft | 280 kts | 31° |
| 2026-05-08 03:02 | 44.55267 | -93.06801 | 7491 ft | 279 kts | 31° |
| 2026-05-08 03:03 | 44.56845 | -93.05220 | 7291 ft | 277 kts | 31° |
| 2026-05-08 03:03 | 44.58377 | -93.03681 | 7157 ft | 265 kts | 30° |
| 2026-05-08 03:03 | 44.59850 | -93.02199 | 7046 ft | 257 kts | 30° |
| 2026-05-08 03:03 | 44.61282 | -93.00759 | 7051 ft | 253 kts | 30° |
| 2026-05-08 03:04 | 44.62715 | -92.99316 | 7038 ft | 254 kts | 30° |
| 2026-05-08 03:04 | 44.64138 | -92.97821 | 6854 ft | 256 kts | 32° |
| 2026-05-08 03:04 | 44.65533 | -92.96277 | 6627 ft | 255 kts | 33° |
| 2026-05-08 03:04 | 44.66915 | -92.94718 | 6425 ft | 255 kts | 34° |
| 2026-05-08 03:05 | 44.68308 | -92.93235 | 6212 ft | 244 kts | 24° |
| 2026-05-08 03:05 | 44.69840 | -92.92565 | 6024 ft | 223 kts | 359° |
| 2026-05-08 03:05 | 44.71324 | -92.92844 | 5765 ft | 212 kts | 336° |
| 2026-05-08 03:05 | 44.72570 | -92.93880 | 5480 ft | 207 kts | 320° |
| 2026-05-08 03:06 | 44.73721 | -92.95104 | 5224 ft | 207 kts | 320° |
| 2026-05-08 03:06 | 44.74872 | -92.96317 | 4952 ft | 206 kts | 320° |
| 2026-05-08 03:06 | 44.76020 | -92.97526 | 4665 ft | 206 kts | 320° |
| 2026-05-08 03:06 | 44.77155 | -92.98720 | 4386 ft | 197 kts | 321° |
| 2026-05-08 03:07 | 44.78218 | -92.99839 | 4144 ft | 187 kts | 320° |
| 2026-05-08 03:07 | 44.79087 | -93.01155 | 3938 ft | 184 kts | 302° |
| 2026-05-08 03:07 | 44.79765 | -93.02678 | 3698 ft | 183 kts | 301° |
| 2026-05-08 03:07 | 44.80418 | -93.04173 | 3465 ft | 175 kts | 301° |
| 2026-05-08 03:08 | 44.81039 | -93.05596 | 3232 ft | 167 kts | 300° |
| 2026-05-08 03:08 | 44.81641 | -93.06980 | 2997 ft | 163 kts | 300° |
| 2026-05-08 03:08 | 44.82208 | -93.08280 | 2814 ft | 147 kts | 300° |
| 2026-05-08 03:08 | 44.82727 | -93.09472 | 2602 ft | 140 kts | 300° |
| 2026-05-08 03:09 | 44.83228 | -93.10622 | 2423 ft | 137 kts | 300° |
| 2026-05-08 03:09 | 44.83724 | -93.11756 | 2223 ft | 135 kts | 300° |
| 2026-05-08 03:09 | 44.84216 | -93.12884 | 2032 ft | 135 kts | 300° |
| 2026-05-08 03:09 | 44.84706 | -93.14013 | 1853 ft | 135 kts | 300° |
| 2026-05-08 03:10 | 44.85199 | -93.15147 | 1677 ft | 136 kts | 300° |
| 2026-05-08 03:10 | 44.85697 | -93.16292 | 1466 ft | 138 kts | 300° |
| 2026-05-08 03:10 | 44.86200 | -93.17452 | 1287 ft | 139 kts | 300° |
| 2026-05-08 03:10 | 44.86705 | -93.18616 | 1110 ft | 140 kts | 300° |
| 2026-05-08 03:11 | 44.87210 | -93.19790 | 939 ft | 140 kts | 300° |
| 2026-05-08 03:11 | 44.87713 | -93.20942 | 827 ft | 130 kts | 299° |
| 2026-05-08 03:11 | 44.88088 | -93.21820 | 823 ft | 77 kts | 301° |
| 2026-05-08 03:11 | 44.88275 | -93.22252 | 826 ft | 26 kts | 301° |
| 2026-05-08 03:12 | 44.88353 | -93.22417 | 825 ft | 13 kts | 318° |
| 2026-05-08 03:12 | 44.88391 | -93.22439 | 824 ft | 3 kts | 353° |
| 2026-05-08 03:12 | 44.88406 | -93.22436 | 824 ft | 1 kts | 9° |
| 2026-05-08 03:12 | 44.88434 | -93.22415 | 824 ft | 6 kts | 39° |
| 2026-05-08 03:13 | 44.88445 | -93.22366 | 824 ft | 5 kts | 92° |
| 2026-05-08 03:13 | 44.88426 | -93.22307 | 822 ft | 10 kts | 120° |
| 2026-05-08 03:13 | 44.88390 | -93.22222 | 822 ft | 9 kts | 121° |
| 2026-05-08 03:13 | 44.88359 | -93.22151 | 823 ft | 8 kts | 122° |
| 2026-05-08 03:14 | 44.88334 | -93.22085 | 823 ft | 7 kts | 107° |
| 2026-05-08 03:14 | 44.88334 | -93.22047 | 825 ft | 1 kts | 104° |
| 2026-05-08 03:14 | 44.88322 | -93.22030 | 825 ft | 6 kts | 137° |
| 2026-05-08 03:14 | 44.88296 | -93.21982 | 825 ft | 9 kts | 104° |
| 2026-05-08 03:15 | 44.88337 | -93.21903 | 826 ft | 10 kts | 41° |
| 2026-05-08 03:15 | 44.88386 | -93.21837 | 826 ft | 9 kts | 44° |
| 2026-05-08 03:15 | 44.88431 | -93.21775 | 825 ft | 9 kts | 45° |
| 2026-05-08 03:15 | 44.88472 | -93.21717 | 824 ft | 8 kts | 45° |
| 2026-05-08 03:16 | 44.88507 | -93.21667 | 826 ft | 7 kts | 45° |
| 2026-05-08 03:16 | 44.88506 | -93.21621 | 826 ft | 5 kts | 124° |
| 2026-05-08 03:16 | 44.88486 | -93.21588 | 825 ft | 4 kts | 133° |
| 2026-05-08 03:16 | 44.88468 | -93.21559 | 825 ft | 3 kts | 135° |
| 2026-05-08 03:17 | 44.88446 | -93.21553 | 825 ft | 3 kts | 182° |
| 2026-05-08 03:17 | 44.88428 | -93.21559 | 825 ft | 2 kts | 195° |
| 2026-05-08 03:17 | 44.88421 | -93.21562 | 825 ft | 0 kts | 196° |
| 2026-05-08 03:17 | 44.88419 | -93.21562 | 825 ft | 0 kts | 196° |